createdAt,value
2018-12-12T00:00:07.137Z,1014.31
2018-12-12T00:01:07.150Z,1014.27
2018-12-12T00:02:07.163Z,1014.26
2018-12-12T00:03:07.229Z,1014.29
2018-12-12T00:04:07.190Z,1014.31
2018-12-12T00:05:07.205Z,1014.31
2018-12-12T00:06:07.220Z,1014.32
2018-12-12T00:07:07.232Z,1014.31
2018-12-12T00:08:07.296Z,1014.33
2018-12-12T00:09:07.260Z,1014.33
2018-12-12T00:10:07.275Z,1014.31
2018-12-12T00:11:07.288Z,1014.35
2018-12-12T00:12:07.302Z,1014.31
2018-12-12T00:13:07.318Z,1014.29
2018-12-12T00:14:07.330Z,1014.34
2018-12-12T00:15:07.342Z,1014.3
2018-12-12T00:17:07.370Z,1014.27
2018-12-12T00:18:07.384Z,1014.3
2018-12-12T00:19:07.399Z,1014.28
2018-12-12T00:20:07.413Z,1014.26
2018-12-12T00:21:07.426Z,1014.33
2018-12-12T00:22:07.541Z,1014.27
2018-12-12T00:23:07.453Z,1014.28
2018-12-12T00:24:07.468Z,1014.26
2018-12-12T00:25:07.482Z,1014.31
2018-12-12T00:26:07.495Z,1014.32
2018-12-12T00:27:07.509Z,1014.34
2018-12-12T00:28:07.522Z,1014.34
2018-12-12T00:29:07.536Z,1014.34
2018-12-12T00:30:07.551Z,1014.41
2018-12-12T00:31:07.563Z,1014.38
2018-12-12T00:33:07.603Z,1014.35
2018-12-12T00:34:07.604Z,1014.35
2018-12-12T00:35:07.623Z,1014.31
2018-12-12T00:36:07.637Z,1014.33
2018-12-12T00:37:07.649Z,1014.34
2018-12-12T00:38:07.659Z,1014.39
2018-12-12T00:39:07.676Z,1014.42
2018-12-12T00:40:07.689Z,1014.38
2018-12-12T00:41:07.702Z,1014.42
2018-12-12T00:42:07.716Z,1014.42
2018-12-12T00:43:07.729Z,1014.44
2018-12-12T00:44:07.743Z,1014.41
2018-12-12T00:45:07.758Z,1014.42
2018-12-12T00:46:07.772Z,1014.44
2018-12-12T00:47:07.788Z,1014.44
2018-12-12T00:49:07.812Z,1014.47
2018-12-12T00:50:07.827Z,1014.5
2018-12-12T00:51:07.840Z,1014.53
2018-12-12T00:52:07.854Z,1014.54
2018-12-12T00:53:07.867Z,1014.53
2018-12-12T00:54:07.881Z,1014.51
2018-12-12T00:55:07.896Z,1014.57
2018-12-12T00:56:07.910Z,1014.58
2018-12-12T00:57:07.924Z,1014.57
2018-12-12T00:58:07.939Z,1014.57
2018-12-12T00:59:07.950Z,1014.61
2018-12-12T01:00:07.964Z,1014.59
2018-12-12T01:01:07.979Z,1014.58
2018-12-12T01:02:07.994Z,1014.59
2018-12-12T01:03:08.007Z,1014.58
2018-12-12T01:05:08.036Z,1014.63
2018-12-12T01:06:08.148Z,1014.62
2018-12-12T01:07:08.061Z,1014.68
2018-12-12T01:08:08.125Z,1014.71
2018-12-12T01:09:08.091Z,1014.7
2018-12-12T01:10:08.104Z,1014.7
2018-12-12T01:11:08.117Z,1014.75
2018-12-12T01:12:08.131Z,1014.69
2018-12-12T01:13:08.146Z,1014.72
2018-12-12T01:14:08.159Z,1014.71
2018-12-12T01:15:08.173Z,1014.73
2018-12-12T01:16:08.188Z,1014.69
2018-12-12T01:17:08.202Z,1014.72
2018-12-12T01:18:08.217Z,1014.8
2018-12-12T01:20:08.244Z,1014.79
2018-12-12T01:21:08.260Z,1014.82
2018-12-12T01:22:08.273Z,1014.83
2018-12-12T01:23:08.286Z,1014.83
2018-12-12T01:24:08.301Z,1014.82
2018-12-12T01:25:08.314Z,1014.88
2018-12-12T01:26:08.329Z,1014.91
2018-12-12T01:27:08.393Z,1014.9
2018-12-12T01:28:08.356Z,1014.95
2018-12-12T01:29:08.368Z,1014.96
2018-12-12T01:30:08.382Z,1014.97
2018-12-12T01:31:08.397Z,1014.94
2018-12-12T01:32:08.460Z,1014.97
2018-12-12T01:33:08.426Z,1014.98
2018-12-12T01:34:08.447Z,1015.02
2018-12-12T01:35:08.455Z,1015.03
2018-12-12T01:36:08.466Z,1015.01
2018-12-12T01:37:08.481Z,1015.08
2018-12-12T01:38:08.495Z,1015.04
2018-12-12T01:39:08.508Z,1015.05
2018-12-12T01:40:08.522Z,1015.05
2018-12-12T01:41:08.541Z,1015.06
2018-12-12T01:42:08.552Z,1015.05
2018-12-12T01:43:08.564Z,1015.03
2018-12-12T01:44:08.578Z,1015.01
2018-12-12T01:45:08.593Z,1015.05
2018-12-12T01:46:08.607Z,1015.03
2018-12-12T01:47:08.622Z,1015.05
2018-12-12T01:48:08.656Z,1015.03
2018-12-12T01:49:08.649Z,1014.99
2018-12-12T01:50:08.664Z,1015.04
2018-12-12T01:52:08.690Z,1015.04
2018-12-12T01:53:08.704Z,1015.03
2018-12-12T01:54:08.717Z,1015.06
2018-12-12T01:55:08.732Z,1015
2018-12-12T01:56:08.747Z,1015.04
2018-12-12T01:57:08.769Z,1015.02
2018-12-12T01:58:08.773Z,1015.03
2018-12-12T01:59:08.787Z,1014.99
2018-12-12T02:00:08.802Z,1015
2018-12-12T02:01:08.816Z,1015.05
2018-12-12T02:02:08.829Z,1015.05
2018-12-12T02:03:08.845Z,1015
2018-12-12T02:04:08.859Z,1015.04
2018-12-12T02:05:08.872Z,1015.06
2018-12-12T02:06:08.936Z,1015.1
2018-12-12T02:08:08.914Z,1015.13
2018-12-12T02:09:08.927Z,1015.13
2018-12-12T02:10:08.942Z,1015.17
2018-12-12T02:11:08.957Z,1015.18
2018-12-12T02:12:08.970Z,1015.14
2018-12-12T02:13:08.985Z,1015.17
2018-12-12T02:14:08.997Z,1015.17
2018-12-12T02:15:09.012Z,1015.15
2018-12-12T02:16:09.026Z,1015.19
2018-12-12T02:17:09.041Z,1015.18
2018-12-12T02:18:09.054Z,1015.15
2018-12-12T02:19:09.070Z,1015.21
2018-12-12T02:20:09.083Z,1015.22
2018-12-12T02:21:09.097Z,1015.2
2018-12-12T02:22:09.111Z,1015.21
2018-12-12T02:24:09.139Z,1015.27
2018-12-12T02:25:09.152Z,1015.29
2018-12-12T02:26:09.168Z,1015.31
2018-12-12T02:27:09.181Z,1015.35
2018-12-12T02:28:09.195Z,1015.28
2018-12-12T02:29:09.209Z,1015.32
2018-12-12T02:30:09.226Z,1015.33
2018-12-12T02:31:09.237Z,1015.34
2018-12-12T02:32:09.251Z,1015.32
2018-12-12T02:33:09.316Z,1015.34
2018-12-12T02:34:09.279Z,1015.36
2018-12-12T02:35:09.293Z,1015.37
2018-12-12T02:36:09.306Z,1015.37
2018-12-12T02:37:09.322Z,1015.41
2018-12-12T02:38:09.335Z,1015.4
2018-12-12T02:40:09.364Z,1015.41
2018-12-12T02:41:09.379Z,1015.39
2018-12-12T02:42:09.391Z,1015.44
2018-12-12T02:43:09.405Z,1015.42
2018-12-12T02:44:09.421Z,1015.42
2018-12-12T02:45:09.434Z,1015.45
2018-12-12T02:46:09.448Z,1015.43
2018-12-12T02:47:09.462Z,1015.45
2018-12-12T02:48:09.476Z,1015.49
2018-12-12T02:49:09.490Z,1015.47
2018-12-12T02:50:09.505Z,1015.47
2018-12-12T02:51:09.519Z,1015.5
2018-12-12T02:52:09.533Z,1015.5
2018-12-12T02:53:09.547Z,1015.5
2018-12-12T02:55:09.575Z,1015.53
2018-12-12T02:56:09.588Z,1015.48
2018-12-12T02:57:09.605Z,1015.48
2018-12-12T02:58:09.618Z,1015.53
2018-12-12T02:59:09.631Z,1015.5
2018-12-12T03:00:09.646Z,1015.52
2018-12-12T03:01:09.660Z,1015.52
2018-12-12T03:02:09.673Z,1015.53
2018-12-12T03:03:09.687Z,1015.56
2018-12-12T03:04:09.701Z,1015.53
2018-12-12T03:05:09.715Z,1015.49
2018-12-12T03:06:09.733Z,1015.54
2018-12-12T03:07:09.743Z,1015.52
2018-12-12T03:08:09.758Z,1015.52
2018-12-12T03:09:09.777Z,1015.53
2018-12-12T03:10:09.787Z,1015.52
2018-12-12T03:11:09.800Z,1015.54
2018-12-12T03:12:09.815Z,1015.55
2018-12-12T03:13:09.828Z,1015.52
2018-12-12T03:14:09.842Z,1015.56
2018-12-12T03:15:09.858Z,1015.55
2018-12-12T03:16:09.871Z,1015.58
2018-12-12T03:17:09.885Z,1015.61
2018-12-12T03:18:09.898Z,1015.6
2018-12-12T03:19:09.913Z,1015.62
2018-12-12T03:20:09.929Z,1015.62
2018-12-12T03:21:09.942Z,1015.61
2018-12-12T03:22:09.957Z,1015.65
2018-12-12T03:23:09.969Z,1015.64
2018-12-12T03:24:09.984Z,1015.68
2018-12-12T03:25:09.998Z,1015.67
2018-12-12T03:27:10.026Z,1015.62
2018-12-12T03:28:10.040Z,1015.75
2018-12-12T03:29:10.054Z,1015.73
2018-12-12T03:30:10.070Z,1015.8
2018-12-12T03:31:10.087Z,1015.77
2018-12-12T03:32:10.148Z,1015.8
2018-12-12T03:33:10.111Z,1015.86
2018-12-12T03:34:10.126Z,1015.86
2018-12-12T03:35:10.139Z,1015.89
2018-12-12T03:36:10.153Z,1015.92
2018-12-12T03:37:10.168Z,1015.93
2018-12-12T03:38:10.183Z,1015.93
2018-12-12T03:39:10.211Z,1015.95
2018-12-12T03:40:10.210Z,1015.93
2018-12-12T03:41:10.225Z,1015.89
2018-12-12T03:43:10.253Z,1015.94
2018-12-12T03:44:10.268Z,1016
2018-12-12T03:45:10.281Z,1015.99
2018-12-12T03:46:10.296Z,1015.97
2018-12-12T03:47:10.308Z,1015.96
2018-12-12T03:48:10.322Z,1016.03
2018-12-12T03:49:10.337Z,1015.97
2018-12-12T03:50:10.351Z,1016
2018-12-12T03:51:10.366Z,1016.02
2018-12-12T03:52:10.391Z,1016.02
2018-12-12T03:53:10.393Z,1016.02
2018-12-12T03:54:10.409Z,1016.03
2018-12-12T03:55:10.422Z,1016.08
2018-12-12T03:56:10.437Z,1016.04
2018-12-12T03:57:10.450Z,1016.06
2018-12-12T03:59:10.479Z,1016.13
2018-12-12T04:00:10.493Z,1016.11
2018-12-12T04:01:10.506Z,1016.14
2018-12-12T04:02:10.520Z,1016.14
2018-12-12T04:03:10.537Z,1016.18
2018-12-12T04:04:10.600Z,1016.19
2018-12-12T04:05:10.567Z,1016.19
2018-12-12T04:06:10.577Z,1016.26
2018-12-12T04:07:10.592Z,1016.27
2018-12-12T04:08:10.606Z,1016.28
2018-12-12T04:09:10.618Z,1016.24
2018-12-12T04:10:10.633Z,1016.29
2018-12-12T04:11:10.648Z,1016.28
2018-12-12T04:12:10.712Z,1016.3
2018-12-12T04:13:10.677Z,1016.34
2018-12-12T04:15:10.704Z,1016.32
2018-12-12T04:16:10.719Z,1016.36
2018-12-12T04:17:12.100Z,1016.36
2018-12-12T04:18:10.748Z,1016.35
2018-12-12T04:19:10.761Z,1016.34
2018-12-12T04:20:10.774Z,1016.38
2018-12-12T04:21:10.790Z,1016.37
2018-12-12T04:22:10.803Z,1016.4
2018-12-12T04:23:10.869Z,1016.41
2018-12-12T04:24:10.831Z,1016.43
2018-12-12T04:25:10.851Z,1016.41
2018-12-12T04:26:10.862Z,1016.44
2018-12-12T04:27:10.875Z,1016.45
2018-12-12T04:28:10.891Z,1016.49
2018-12-12T04:30:10.919Z,1016.51
2018-12-12T04:31:10.931Z,1016.5
2018-12-12T04:32:10.944Z,1016.52
2018-12-12T04:33:10.962Z,1016.5
2018-12-12T04:34:10.982Z,1016.5
2018-12-12T04:35:10.990Z,1016.61
2018-12-12T04:36:11.003Z,1016.54
2018-12-12T04:37:11.018Z,1016.54
2018-12-12T04:38:11.029Z,1016.55
2018-12-12T04:39:11.043Z,1016.54
2018-12-12T04:40:11.066Z,1016.59
2018-12-12T04:41:11.072Z,1016.58
2018-12-12T04:42:11.088Z,1016.55
2018-12-12T04:43:11.103Z,1016.55
2018-12-12T04:44:11.115Z,1016.56
2018-12-12T04:45:11.130Z,1016.59
2018-12-12T04:46:11.144Z,1016.59
2018-12-12T04:47:11.173Z,1016.61
2018-12-12T04:48:11.171Z,1016.58
2018-12-12T04:49:11.185Z,1016.61
2018-12-12T04:50:11.199Z,1016.59
2018-12-12T04:51:11.215Z,1016.56
2018-12-12T04:52:11.228Z,1016.53
2018-12-12T04:53:11.243Z,1016.5
2018-12-12T04:54:11.257Z,1016.52
2018-12-12T04:55:11.270Z,1016.54
2018-12-12T04:56:11.288Z,1016.54
2018-12-12T04:57:11.298Z,1016.58
2018-12-12T04:58:11.313Z,1016.53
2018-12-12T04:59:11.326Z,1016.56
2018-12-12T05:00:11.340Z,1016.55
2018-12-12T05:02:11.369Z,1016.56
2018-12-12T05:03:11.384Z,1016.61
2018-12-12T05:04:11.397Z,1016.65
2018-12-12T05:05:11.410Z,1016.66
2018-12-12T05:06:11.425Z,1016.68
2018-12-12T05:07:11.444Z,1016.68
2018-12-12T05:08:11.458Z,1016.66
2018-12-12T05:09:11.519Z,1016.65
2018-12-12T05:10:11.481Z,1016.7
2018-12-12T05:11:11.495Z,1016.64
2018-12-12T05:12:11.509Z,1016.7
2018-12-12T05:13:11.572Z,1016.7
2018-12-12T05:14:11.537Z,1016.7
2018-12-12T05:15:11.549Z,1016.77
2018-12-12T05:16:11.565Z,1016.72
2018-12-12T05:18:11.592Z,1016.77
2018-12-12T05:19:11.606Z,1016.8
2018-12-12T05:20:11.620Z,1016.81
2018-12-12T05:21:11.634Z,1016.81
2018-12-12T05:22:11.648Z,1016.81
2018-12-12T05:23:11.661Z,1016.83
2018-12-12T05:24:11.675Z,1016.83
2018-12-12T05:25:11.688Z,1016.85
2018-12-12T05:26:11.703Z,1016.84
2018-12-12T05:27:11.717Z,1016.84
2018-12-12T05:28:11.731Z,1016.91
2018-12-12T05:29:11.748Z,1016.9
2018-12-12T05:30:11.765Z,1016.96
2018-12-12T05:31:11.774Z,1016.94
2018-12-12T05:32:11.786Z,1016.93
2018-12-12T05:34:11.813Z,1017
2018-12-12T05:35:11.828Z,1016.98
2018-12-12T05:36:11.845Z,1017.02
2018-12-12T05:37:11.857Z,1017
2018-12-12T05:38:11.868Z,1017.02
2018-12-12T05:39:11.883Z,1016.99
2018-12-12T05:40:11.897Z,1017
2018-12-12T05:41:11.911Z,1016.99
2018-12-12T05:42:11.926Z,1017.04
2018-12-12T05:43:11.939Z,1017.05
2018-12-12T05:44:11.951Z,1017.04
2018-12-12T05:45:11.965Z,1017.04
2018-12-12T05:46:12.029Z,1017.02
2018-12-12T05:47:11.994Z,1017.01
2018-12-12T05:48:12.006Z,1017.07
2018-12-12T05:50:12.135Z,1017.07
2018-12-12T05:51:12.049Z,1017.06
2018-12-12T05:52:12.060Z,1017.06
2018-12-12T05:53:12.074Z,1017.09
2018-12-12T05:54:12.140Z,1017.06
2018-12-12T05:55:12.102Z,1017.05
2018-12-12T05:56:14.190Z,1017.05
2018-12-12T05:57:12.129Z,1017.05
2018-12-12T05:58:12.142Z,1017.1
2018-12-12T05:59:12.156Z,1017.12
2018-12-12T06:00:12.169Z,1017.04
2018-12-12T06:01:12.182Z,1017.06
2018-12-12T06:02:12.199Z,1017.1
2018-12-12T06:03:12.212Z,1017.07
2018-12-12T06:05:12.239Z,1017.15
2018-12-12T06:06:12.251Z,1017.11
2018-12-12T06:07:12.267Z,1017.13
2018-12-12T06:08:12.279Z,1017.15
2018-12-12T06:09:12.293Z,1017.14
2018-12-12T06:10:12.307Z,1017.13
2018-12-12T06:11:12.323Z,1017.18
2018-12-12T06:12:12.335Z,1017.2
2018-12-12T06:13:12.347Z,1017.21
2018-12-12T06:14:12.360Z,1017.23
2018-12-12T06:15:12.375Z,1017.23
2018-12-12T06:16:12.389Z,1017.22
2018-12-12T06:17:12.401Z,1017.24
2018-12-12T06:18:12.416Z,1017.31
2018-12-12T06:19:12.481Z,1017.26
2018-12-12T06:20:12.442Z,1017.28
2018-12-12T06:21:12.455Z,1017.33
2018-12-12T06:22:12.470Z,1017.32
2018-12-12T06:23:12.487Z,1017.32
2018-12-12T06:24:12.496Z,1017.35
2018-12-12T06:25:12.510Z,1017.3
2018-12-12T06:26:12.525Z,1017.32
2018-12-12T06:27:12.539Z,1017.32
2018-12-12T06:28:12.551Z,1017.32
2018-12-12T06:29:12.564Z,1017.35
2018-12-12T06:30:12.587Z,1017.35
2018-12-12T06:31:12.594Z,1017.32
2018-12-12T06:32:12.606Z,1017.36
2018-12-12T06:33:12.620Z,1017.4
2018-12-12T06:34:12.637Z,1017.36
2018-12-12T06:35:12.647Z,1017.41
2018-12-12T06:37:12.675Z,1017.41
2018-12-12T06:38:12.688Z,1017.41
2018-12-12T06:39:12.702Z,1017.42
2018-12-12T06:40:12.766Z,1017.42
2018-12-12T06:41:12.730Z,1017.46
2018-12-12T06:42:12.743Z,1017.46
2018-12-12T06:43:12.757Z,1017.45
2018-12-12T06:44:12.769Z,1017.46
2018-12-12T06:45:12.787Z,1017.5
2018-12-12T06:46:12.796Z,1017.49
2018-12-12T06:47:12.816Z,1017.54
2018-12-12T06:48:12.825Z,1017.55
2018-12-12T06:49:12.839Z,1017.55
2018-12-12T06:50:12.852Z,1017.58
2018-12-12T06:51:12.864Z,1017.59
2018-12-12T06:53:12.894Z,1017.66
2018-12-12T06:54:12.907Z,1017.68
2018-12-12T06:55:12.919Z,1017.69
2018-12-12T06:56:12.935Z,1017.72
2018-12-12T06:57:12.948Z,1017.73
2018-12-12T06:58:12.961Z,1017.7
2018-12-12T06:59:12.974Z,1017.71
2018-12-12T07:00:12.990Z,1017.77
2018-12-12T07:01:13.001Z,1017.79
2018-12-12T07:02:13.017Z,1017.81
2018-12-12T07:03:13.030Z,1017.76
2018-12-12T07:04:13.044Z,1017.77
2018-12-12T07:05:13.056Z,1017.79
2018-12-12T07:06:13.070Z,1017.82
2018-12-12T07:07:13.086Z,1017.82
2018-12-12T07:09:13.110Z,1017.84
2018-12-12T07:10:13.127Z,1017.86
2018-12-12T07:11:13.138Z,1017.84
2018-12-12T07:12:13.152Z,1017.89
2018-12-12T07:13:13.165Z,1017.88
2018-12-12T07:14:13.181Z,1017.84
2018-12-12T07:15:13.195Z,1017.89
2018-12-12T07:16:13.209Z,1017.9
2018-12-12T07:17:13.224Z,1017.89
2018-12-12T07:18:13.236Z,1017.93
2018-12-12T07:19:13.251Z,1017.93
2018-12-12T07:20:13.262Z,1017.96
2018-12-12T07:21:13.276Z,1017.98
2018-12-12T07:22:13.290Z,1017.99
2018-12-12T07:23:13.304Z,1017.99
2018-12-12T07:25:13.330Z,1018
2018-12-12T07:26:13.345Z,1017.99
2018-12-12T07:27:13.358Z,1017.96
2018-12-12T07:28:13.372Z,1018
2018-12-12T07:29:13.387Z,1018.03
2018-12-12T07:30:13.398Z,1018.03
2018-12-12T07:31:13.413Z,1018.03
2018-12-12T07:32:13.427Z,1018.02
2018-12-12T07:33:13.441Z,1018.03
2018-12-12T07:34:13.454Z,1018.03
2018-12-12T07:35:13.468Z,1018.03
2018-12-12T07:36:13.482Z,1018.06
2018-12-12T07:37:13.495Z,1018.08
2018-12-12T07:38:13.513Z,1018.12
2018-12-12T07:40:13.538Z,1018.1
2018-12-12T07:41:13.551Z,1018.09
2018-12-12T07:42:13.566Z,1018.14
2018-12-12T07:43:13.578Z,1018.15
2018-12-12T07:44:13.592Z,1018.16
2018-12-12T07:45:13.605Z,1018.16
2018-12-12T07:46:13.621Z,1018.15
2018-12-12T07:47:14.420Z,1018.15
2018-12-12T07:48:13.646Z,1018.13
2018-12-12T07:49:13.660Z,1018.21
2018-12-12T07:50:13.674Z,1018.23
2018-12-12T07:51:13.689Z,1018.26
2018-12-12T07:52:13.702Z,1018.24
2018-12-12T07:53:13.716Z,1018.26
2018-12-12T07:54:13.730Z,1018.25
2018-12-12T07:55:13.743Z,1018.27
2018-12-12T07:56:13.756Z,1018.25
2018-12-12T07:57:13.770Z,1018.22
2018-12-12T07:58:13.785Z,1018.23
2018-12-12T07:59:13.847Z,1018.26
2018-12-12T08:00:13.812Z,1018.28
2018-12-12T08:01:13.825Z,1018.34
2018-12-12T08:02:13.839Z,1018.35
2018-12-12T08:03:13.853Z,1018.37
2018-12-12T08:04:13.868Z,1018.39
2018-12-12T08:05:13.894Z,1018.35
2018-12-12T08:06:13.895Z,1018.4
2018-12-12T08:07:13.909Z,1018.39
2018-12-12T08:08:13.933Z,1018.42
2018-12-12T08:09:13.986Z,1018.4
2018-12-12T08:10:13.949Z,1018.38
2018-12-12T08:12:13.976Z,1018.44
2018-12-12T08:13:13.990Z,1018.48
2018-12-12T08:14:14.004Z,1018.48
2018-12-12T08:15:14.019Z,1018.48
2018-12-12T08:16:14.032Z,1018.45
2018-12-12T08:17:14.046Z,1018.45
2018-12-12T08:18:14.059Z,1018.48
2018-12-12T08:19:14.073Z,1018.47
2018-12-12T08:20:14.089Z,1018.45
2018-12-12T08:21:14.101Z,1018.48
2018-12-12T08:22:14.114Z,1018.46
2018-12-12T08:23:14.129Z,1018.46
2018-12-12T08:24:14.142Z,1018.49
2018-12-12T08:25:14.155Z,1018.46
2018-12-12T08:26:14.169Z,1018.47
2018-12-12T08:28:14.249Z,1018.52
2018-12-12T08:29:14.212Z,1018.48
2018-12-12T08:30:14.228Z,1018.52
2018-12-12T08:31:14.239Z,1018.47
2018-12-12T08:32:14.254Z,1018.45
2018-12-12T08:33:15.011Z,1018.43
2018-12-12T08:34:14.291Z,1018.47
2018-12-12T08:35:14.295Z,1018.49
2018-12-12T08:36:14.311Z,1018.44
2018-12-12T08:37:14.324Z,1018.47
2018-12-12T08:38:14.338Z,1018.49
2018-12-12T08:39:14.352Z,1018.5
2018-12-12T08:40:14.364Z,1018.52
2018-12-12T08:41:14.380Z,1018.51
2018-12-12T08:42:14.400Z,1018.52
2018-12-12T08:44:14.421Z,1018.57
2018-12-12T08:45:14.435Z,1018.55
2018-12-12T08:46:14.449Z,1018.57
2018-12-12T08:47:14.462Z,1018.55
2018-12-12T08:48:14.477Z,1018.58
2018-12-12T08:49:14.491Z,1018.56
2018-12-12T08:50:14.507Z,1018.62
2018-12-12T08:51:14.518Z,1018.61
2018-12-12T08:52:14.535Z,1018.65
2018-12-12T08:53:14.548Z,1018.65
2018-12-12T08:54:14.563Z,1018.61
2018-12-12T08:55:17.549Z,1018.63
2018-12-12T08:56:14.588Z,1018.65
2018-12-12T08:57:14.602Z,1018.72
2018-12-12T08:58:14.617Z,1018.67
2018-12-12T09:00:14.647Z,1018.67
2018-12-12T09:01:14.659Z,1018.64
2018-12-12T09:02:14.674Z,1018.7
2018-12-12T09:03:17.485Z,1018.72
2018-12-12T09:04:14.705Z,1018.72
2018-12-12T09:05:14.717Z,1018.77
2018-12-12T09:06:14.730Z,1018.74
2018-12-12T09:07:14.744Z,1018.76
2018-12-12T09:08:14.809Z,1018.8
2018-12-12T09:09:14.771Z,1018.81
2018-12-12T09:10:14.787Z,1018.82
2018-12-12T09:11:14.809Z,1018.88
2018-12-12T09:12:14.816Z,1018.86
2018-12-12T09:13:15.459Z,1018.87
2018-12-12T09:15:14.859Z,1018.89
2018-12-12T09:16:14.872Z,1018.87
2018-12-12T09:17:14.887Z,1018.91
2018-12-12T09:18:14.900Z,1018.89
2018-12-12T09:19:14.915Z,1018.91
2018-12-12T09:20:14.928Z,1018.89
2018-12-12T09:21:14.942Z,1018.93
2018-12-12T09:22:14.958Z,1018.96
2018-12-12T09:23:14.970Z,1018.95
2018-12-12T09:24:14.986Z,1018.99
2018-12-12T09:25:15.000Z,1018.99
2018-12-12T09:26:15.016Z,1019
2018-12-12T09:27:15.034Z,1018.97
2018-12-12T09:28:15.093Z,1018.98
2018-12-12T09:29:15.057Z,1018.99
2018-12-12T09:30:15.073Z,1018.97
2018-12-12T09:31:15.085Z,1018.97
2018-12-12T09:32:15.101Z,1018.98
2018-12-12T09:33:15.113Z,1018.95
2018-12-12T09:34:15.129Z,1018.99
2018-12-12T09:35:15.145Z,1018.94
2018-12-12T09:36:15.159Z,1018.96
2018-12-12T09:37:15.173Z,1018.96
2018-12-12T09:38:15.189Z,1018.94
2018-12-12T09:39:15.201Z,1018.93
2018-12-12T09:40:15.215Z,1018.92
2018-12-12T09:41:15.229Z,1018.9
2018-12-12T09:42:15.242Z,1018.93
2018-12-12T09:43:15.258Z,1018.93
2018-12-12T09:44:15.323Z,1018.96
2018-12-12T09:45:21.510Z,1018.91
2018-12-12T09:47:15.317Z,1018.98
2018-12-12T09:48:19.235Z,1019.02
2018-12-12T09:49:15.346Z,1019.04
2018-12-12T09:50:15.361Z,1019.03
2018-12-12T09:51:15.375Z,1019.04
2018-12-12T09:52:15.391Z,1019.06
2018-12-12T09:53:15.405Z,1019.06
2018-12-12T09:54:15.420Z,1019.09
2018-12-12T09:55:15.434Z,1019.11
2018-12-12T09:56:15.448Z,1019.09
2018-12-12T09:57:15.464Z,1019.13
2018-12-12T09:58:15.478Z,1019.15
2018-12-12T09:59:15.495Z,1019.08
2018-12-12T10:00:15.509Z,1019.08
2018-12-12T10:01:15.524Z,1019.05
2018-12-12T10:03:15.553Z,1019
2018-12-12T10:04:15.568Z,1019.03
2018-12-12T10:05:15.584Z,1019.13
2018-12-12T10:06:15.599Z,1019.12
2018-12-12T10:07:15.664Z,1019.09
2018-12-12T10:08:15.627Z,1019.08
2018-12-12T10:09:15.642Z,1019.05
2018-12-12T10:10:15.659Z,1019.01
2018-12-12T10:11:15.673Z,1019.02
2018-12-12T10:12:15.687Z,1019.04
2018-12-12T10:13:15.701Z,1019.03
2018-12-12T10:14:15.719Z,1019.08
2018-12-12T10:15:15.731Z,1019.11
2018-12-12T10:16:15.746Z,1019.07
2018-12-12T10:17:15.762Z,1019.04
2018-12-12T10:19:15.791Z,1019.07
2018-12-12T10:20:15.808Z,1019.02
2018-12-12T10:21:15.826Z,1019.05
2018-12-12T10:22:15.835Z,1019.06
2018-12-12T10:23:15.850Z,1019.07
2018-12-12T10:24:16.518Z,1019.07
2018-12-12T10:25:15.881Z,1019.06
2018-12-12T10:26:15.895Z,1019.09
2018-12-12T10:27:15.911Z,1019.07
2018-12-12T10:28:15.926Z,1019.04
2018-12-12T10:29:15.941Z,1019.04
2018-12-12T10:30:15.956Z,1019.02
2018-12-12T10:31:15.971Z,1019.04
2018-12-12T10:32:15.996Z,1019.04
2018-12-12T10:33:15.999Z,1019
2018-12-12T10:35:16.031Z,1019.02
2018-12-12T10:36:16.047Z,1019.06
2018-12-12T10:37:16.068Z,1019.02
2018-12-12T10:38:16.077Z,1019.05
2018-12-12T10:39:16.140Z,1019.08
2018-12-12T10:40:16.104Z,1019.04
2018-12-12T10:41:16.117Z,1019.06
2018-12-12T10:42:16.134Z,1019.07
2018-12-12T10:43:16.151Z,1019.07
2018-12-12T10:44:16.162Z,1019.08
2018-12-12T10:45:16.182Z,1019.1
2018-12-12T10:46:16.194Z,1019.09
2018-12-12T10:47:16.209Z,1019.1
2018-12-12T10:48:16.272Z,1019.06
2018-12-12T10:50:16.256Z,1019.11
2018-12-12T10:51:16.267Z,1019.11
2018-12-12T10:52:16.285Z,1019.09
2018-12-12T10:53:16.301Z,1019.13
2018-12-12T10:54:16.316Z,1019.08
2018-12-12T10:55:16.327Z,1019.13
2018-12-12T10:56:16.344Z,1019.11
2018-12-12T10:57:16.359Z,1019.1
2018-12-12T10:58:16.375Z,1019.09
2018-12-12T10:59:16.387Z,1019.15
2018-12-12T11:00:16.404Z,1019.14
2018-12-12T11:01:16.419Z,1019.12
2018-12-12T11:02:16.433Z,1019.11
2018-12-12T11:03:16.448Z,1019.12
2018-12-12T11:04:16.466Z,1019.14
2018-12-12T11:05:16.479Z,1019.15
2018-12-12T11:06:16.495Z,1019.15
2018-12-12T11:07:16.508Z,1019.13
2018-12-12T11:08:16.532Z,1019.15
2018-12-12T11:09:16.539Z,1019.2
2018-12-12T11:10:16.556Z,1019.2
2018-12-12T11:11:16.569Z,1019.2
2018-12-12T11:12:16.587Z,1019.16
2018-12-12T11:13:16.601Z,1019.17
2018-12-12T11:14:16.613Z,1019.2
2018-12-12T11:15:16.631Z,1019.17
2018-12-12T11:16:16.644Z,1019.18
2018-12-12T11:17:16.665Z,1019.14
2018-12-12T11:18:16.674Z,1019.18
2018-12-12T11:19:16.691Z,1019.2
2018-12-12T11:20:16.705Z,1019.23
2018-12-12T11:22:16.734Z,1019.22
2018-12-12T11:23:16.750Z,1019.24
2018-12-12T11:24:16.766Z,1019.2
2018-12-12T11:25:16.779Z,1019.22
2018-12-12T11:26:16.794Z,1019.2
2018-12-12T11:27:16.810Z,1019.23
2018-12-12T11:28:16.825Z,1019.22
2018-12-12T11:29:16.840Z,1019.26
2018-12-12T11:30:16.856Z,1019.2
2018-12-12T11:31:16.871Z,1019.22
2018-12-12T11:32:16.884Z,1019.2
2018-12-12T11:33:16.900Z,1019.23
2018-12-12T11:34:16.916Z,1019.23
2018-12-12T11:35:16.941Z,1019.17
2018-12-12T11:36:16.949Z,1019.14
2018-12-12T11:38:16.977Z,1019.18
2018-12-12T11:39:16.992Z,1019.11
2018-12-12T11:40:17.009Z,1019.15
2018-12-12T11:41:17.023Z,1019.12
2018-12-12T11:42:17.041Z,1019.09
2018-12-12T11:43:17.054Z,1019.12
2018-12-12T11:44:17.069Z,1019.11
2018-12-12T11:45:17.085Z,1019.09
2018-12-12T11:46:17.101Z,1019.09
2018-12-12T11:47:17.117Z,1019.07
2018-12-12T11:48:17.132Z,1019.15
2018-12-12T11:49:17.155Z,1019.12
2018-12-12T11:50:17.164Z,1019.12
2018-12-12T11:51:17.231Z,1019.09
2018-12-12T11:52:17.197Z,1019.1
2018-12-12T11:54:17.226Z,1019.09
2018-12-12T11:55:17.245Z,1019.13
2018-12-12T11:56:17.261Z,1019.11
2018-12-12T11:57:17.324Z,1019.1
2018-12-12T11:58:17.290Z,1019.1
2018-12-12T11:59:17.306Z,1019.09
2018-12-12T12:00:17.324Z,1019.15
2018-12-12T12:01:17.339Z,1019.1
2018-12-12T12:02:17.356Z,1019.11
2018-12-12T12:03:17.370Z,1019.13
2018-12-12T12:04:17.385Z,1019.11
2018-12-12T12:05:17.403Z,1019.12
2018-12-12T12:06:17.417Z,1019.13
2018-12-12T12:07:18.398Z,1019.11
2018-12-12T12:08:17.449Z,1019.11
2018-12-12T12:10:17.479Z,1019.18
2018-12-12T12:11:17.495Z,1019.17
2018-12-12T12:12:17.512Z,1019.14
2018-12-12T12:13:17.528Z,1019.24
2018-12-12T12:14:17.543Z,1019.22
2018-12-12T12:15:17.559Z,1019.15
2018-12-12T12:16:17.572Z,1019.18
2018-12-12T12:17:17.588Z,1019.13
2018-12-12T12:18:17.604Z,1019.12
2018-12-12T12:19:17.619Z,1019.12
2018-12-12T12:20:17.634Z,1019.15
2018-12-12T12:21:17.651Z,1019.16
2018-12-12T12:22:17.666Z,1019.23
2018-12-12T12:23:17.681Z,1019.17
2018-12-12T12:25:17.713Z,1019.23
2018-12-12T12:26:17.727Z,1019.24
2018-12-12T12:27:17.742Z,1019.23
2018-12-12T12:28:17.758Z,1019.25
2018-12-12T12:29:17.774Z,1019.23
2018-12-12T12:30:17.788Z,1019.25
2018-12-12T12:31:17.804Z,1019.22
2018-12-12T12:32:17.820Z,1019.25
2018-12-12T12:33:17.834Z,1019.18
2018-12-12T12:34:17.849Z,1019.2
2018-12-12T12:35:17.864Z,1019.23
2018-12-12T12:36:17.882Z,1019.22
2018-12-12T12:37:17.894Z,1019.23
2018-12-12T12:38:17.911Z,1019.21
2018-12-12T12:39:17.926Z,1019.24
2018-12-12T12:40:17.941Z,1019.24
2018-12-12T12:41:17.955Z,1019.24
2018-12-12T12:42:17.970Z,1019.25
2018-12-12T12:43:17.988Z,1019.22
2018-12-12T12:44:18.052Z,1019.19
2018-12-12T12:45:18.017Z,1019.19
2018-12-12T12:46:18.032Z,1019.18
2018-12-12T12:47:18.047Z,1019.19
2018-12-12T12:48:18.061Z,1019.18